Winchester, Texas
Current Conditions -  °F | °C
As of 6:55 AM on Monday 20 Oct 2014 (Local Time) from K3T5 Reporting Station
Haze Haze  
Wind Chill: 18°   Ceiling: Unl
Heat Index: 18°   Visibility: 5mi
Dew Point: 17°   Wind: 3mph
Humidity: 98%   Direction: 340°NNW
Pressure: 30.02"   Gusts: NA
Location:  29.8569°N, 96.9311°W
Report Text: K3T5 201155Z AUTO 34003KT 5SM BR CLR 18/17 A3002 RMK AO2 T01750172 10200 20167
Loading
Personal Weather Stations






























Interactive Weather Map
Tropical Storm Tracking
New forecast layout! Learn more

10-Day Weather Forecast

Advertisements
Track Severe Weather on mobile